Time;durP1;ratioP1;P1;durP2;ratioP2;P2;SDS_P1;SDS_P2;PMS_P1;PMS_P2;Temp;Humidity;BMP_temperature;BMP_pressure;BME280_temperature;BME280_humidity;BME280_pressure;Samples;Min_cycle;Max_cycle;Signal;HPM_P1;HPM_P2
2024/02/21 00:01:19;;;;;;;17.40;11.07;;;;;;;-5.97;100.00;100289.97;5019104;28;20053;-74
2024/02/21 00:03:45;;;;;;;18.80;10.60;;;;;;;-5.97;100.00;100281.34;5020269;28;20053;-74
2024/02/21 00:06:11;;;;;;;18.67;10.77;;;;;;;-5.95;100.00;100275.25;5002840;28;20114;-74
2024/02/21 00:08:37;;;;;;;18.10;10.63;;;;;;;-5.98;100.00;100264.16;5003208;28;20045;-72
2024/02/21 00:11:04;;;;;;;18.17;10.60;;;;;;;-5.91;100.00;100270.84;5002973;28;20032;-71
2024/02/21 00:13:30;;;;;;;16.07;9.63;;;;;;;-5.86;100.00;100271.59;5003201;28;20060;-72
2024/02/21 00:15:55;;;;;;;17.60;10.47;;;;;;;-5.83;100.00;100279.25;5019395;28;20037;-73
2024/02/21 00:18:21;;;;;;;19.23;11.30;;;;;;;-5.76;100.00;100273.84;5018544;28;20045;-73
2024/02/21 00:20:47;;;;;;;14.97;9.57;;;;;;;-5.71;100.00;100271.13;5002380;28;20052;-73
2024/02/21 00:23:13;;;;;;;16.50;10.10;;;;;;;-5.68;100.00;100265.88;5018579;28;20051;-72
2024/02/21 00:25:39;;;;;;;17.03;9.70;;;;;;;-5.61;100.00;100267.38;5002039;28;20044;-71
2024/02/21 00:28:06;;;;;;;16.80;10.23;;;;;;;-5.61;100.00;100262.22;5001794;28;20506;-72
2024/02/21 00:30:32;;;;;;;19.13;10.27;;;;;;;-5.62;100.00;100268.28;5018268;28;20041;-72
2024/02/21 00:32:57;;;;;;;18.77;10.77;;;;;;;-5.58;100.00;100262.16;5018373;28;20041;-71
2024/02/21 00:35:24;;;;;;;16.97;9.70;;;;;;;-5.46;100.00;100266.97;5002709;28;20044;-71
2024/02/21 00:37:51;;;;;;;16.40;10.03;;;;;;;-5.35;100.00;100258.00;5002814;28;20068;-71
2024/02/21 00:40:20;;;;;;;16.60;9.23;;;;;;;-5.30;100.00;100268.22;5035351;28;20057;-71
2024/02/21 00:42:46;;;;;;;13.37;9.10;;;;;;;-5.22;100.00;100261.06;5034972;28;20051;-72
2024/02/21 00:45:12;;;;;;;15.60;9.67;;;;;;;-5.21;100.00;100260.19;5034747;28;20175;-71
2024/02/21 00:47:38;;;;;;;15.60;9.57;;;;;;;-5.22;100.00;100266.25;5001587;28;20068;-71
2024/02/21 00:50:04;;;;;;;16.33;9.23;;;;;;;-5.20;100.00;100277.44;5018112;28;20119;-71
2024/02/21 00:52:30;;;;;;;15.67;9.97;;;;;;;-5.14;100.00;100256.53;5002658;28;20095;-71
2024/02/21 00:54:56;;;;;;;16.40;9.03;;;;;;;-5.18;100.00;100257.50;5018810;28;20055;-71
2024/02/21 00:57:23;;;;;;;15.83;9.70;;;;;;;-5.11;100.00;100251.25;5034584;28;20473;-71
2024/02/21 00:59:49;;;;;;;19.23;10.37;;;;;;;-5.05;100.00;100245.03;5018086;28;20041;-70
2024/02/21 01:02:15;;;;;;;16.37;10.10;;;;;;;-5.05;100.00;100245.88;5001426;28;20112;-70
2024/02/21 01:04:41;;;;;;;16.70;9.93;;;;;;;-5.03;100.00;100243.25;5017615;28;20131;-71
2024/02/21 01:07:06;;;;;;;17.17;10.17;;;;;;;-5.05;100.00;100237.25;5017688;28;20044;-70
2024/02/21 01:09:32;;;;;;;14.60;9.27;;;;;;;-4.97;100.00;100237.88;5017895;28;20379;-74
2024/02/21 01:11:58;;;;;;;14.47;9.57;;;;;;;-4.92;100.00;100242.00;5034416;28;20067;-71
2024/02/21 01:14:24;;;;;;;15.27;9.10;;;;;;;-4.89;100.00;100236.78;5034022;28;20045;-71
2024/02/21 01:16:51;;;;;;;17.90;9.63;;;;;;;-4.84;100.00;100240.03;5033876;28;20052;-71
2024/02/21 01:19:17;;;;;;;16.40;9.30;;;;;;;-4.85;100.00;100233.16;5034427;28;20131;-69
2024/02/21 01:21:43;;;;;;;15.57;9.07;;;;;;;-4.86;100.00;100238.41;5032378;28;20072;-69
2024/02/21 01:24:09;;;;;;;16.70;9.50;;;;;;;-4.88;100.00;100235.00;5016903;28;20041;-70
2024/02/21 01:26:35;;;;;;;19.37;10.00;;;;;;;-4.85;100.00;100230.59;5017534;28;20063;-70
2024/02/21 01:29:01;;;;;;;19.10;9.53;;;;;;;-4.84;100.00;100237.44;5050597;28;20118;-70
2024/02/21 01:31:26;;;;;;;17.20;10.07;;;;;;;-4.91;100.00;100238.53;5017245;28;20356;-70
2024/02/21 01:33:52;;;;;;;17.63;9.43;;;;;;;-4.91;100.00;100238.53;5001535;28;20041;-73
2024/02/21 01:36:18;;;;;;;17.00;10.03;;;;;;;-4.93;100.00;100222.19;5018146;28;20060;-73
2024/02/21 01:38:44;;;;;;;19.33;10.63;;;;;;;-4.96;100.00;100222.28;5017565;28;20055;-70
2024/02/21 01:41:09;;;;;;;17.60;9.70;;;;;;;-4.90;100.00;100221.25;5034443;28;20041;-70
2024/02/21 01:43:35;;;;;;;16.63;9.40;;;;;;;-4.84;100.00;100228.84;5001319;28;20048;-71
2024/02/21 01:46:01;;;;;;;18.23;9.40;;;;;;;-4.83;100.00;100213.25;5018107;28;20044;-70
2024/02/21 01:48:27;;;;;;;14.90;9.27;;;;;;;-4.78;100.00;100205.34;5018370;28;20082;-71
2024/02/21 01:50:54;;;;;;;14.30;8.83;;;;;;;-4.63;100.00;100215.19;5002245;28;20045;-71
2024/02/21 01:53:29;;;;;;;11.73;8.13;;;;;;;-4.50;100.00;100204.38;5001898;28;20041;-71
2024/02/21 01:55:55;;;;;;;17.37;9.90;;;;;;;-4.63;100.00;100205.69;5034338;28;20549;-70
2024/02/21 01:58:21;;;;;;;17.13;10.33;;;;;;;-4.61;100.00;100197.88;5017165;28;20045;-71
2024/02/21 02:00:48;;;;;;;17.80;10.03;;;;;;;-4.60;100.00;100195.22;5001115;28;20131;-71
2024/02/21 02:03:17;;;;;;;15.27;9.23;;;;;;;-4.53;100.00;100191.53;5017013;28;20055;-69
2024/02/21 02:05:48;;;;;;;15.27;10.63;;;;;;;-4.48;100.00;100188.78;5017666;28;20114;-70
2024/02/21 02:08:15;;;;;;;17.38;10.68;;;;;;;-4.53;100.00;100193.25;5050092;28;20095;-70
2024/02/21 02:10:41;;;;;;;16.90;10.40;;;;;;;-4.49;100.00;100193.09;5017029;28;20454;-71
2024/02/21 02:13:07;;;;;;;16.80;9.73;;;;;;;-4.53;100.00;100195.84;5017780;28;20387;-71
2024/02/21 02:15:43;;;;;;;19.47;11.20;;;;;;;-4.38;100.00;100188.41;5000713;28;20045;-71
2024/02/21 02:18:10;;;;;;;15.90;9.93;;;;;;;-4.42;100.00;100196.34;5049925;28;20141;-71
2024/02/21 02:20:36;;;;;;;14.33;9.33;;;;;;;-4.41;100.00;100195.47;5000869;28;20037;-71
2024/02/21 02:23:10;;;;;;;17.43;10.27;;;;;;;-4.37;100.00;100187.53;5017434;28;20102;-71
2024/02/21 02:25:36;;;;;;;18.43;9.83;;;;;;;-4.41;100.00;100192.88;5050147;28;20048;-71
2024/02/21 02:28:08;;;;;;;18.03;10.87;;;;;;;-4.38;100.00;100191.00;5000830;28;20049;-70
2024/02/21 02:30:38;;;;;;;14.83;9.77;;;;;;;-4.37;100.00;100197.03;5017150;28;20063;-70
2024/02/21 02:33:04;;;;;;;21.27;10.97;;;;;;;-4.42;100.00;100189.41;5033869;28;20048;-71
2024/02/21 02:35:31;;;;;;;16.13;10.43;;;;;;;-4.34;100.00;100182.22;5018296;28;20044;-70
2024/02/21 02:37:57;;;;;;;15.67;10.37;;;;;;;-4.36;100.00;100184.03;5003856;28;20048;-70
2024/02/21 02:40:23;;;;;;;19.13;11.00;;;;;;;-4.29;100.00;100192.44;5019108;28;20151;-71
2024/02/21 02:42:50;;;;;;;18.00;9.77;;;;;;;-4.37;100.00;100203.09;5002981;28;20041;-72
2024/02/21 02:45:17;;;;;;;15.47;9.93;;;;;;;-4.34;100.00;100195.19;5018930;28;20049;-70
2024/02/21 02:47:45;;;;;;;19.47;10.30;;;;;;;-4.22;100.00;100194.78;5018857;28;20067;-69
2024/02/21 02:50:11;;;;;;;16.47;9.83;;;;;;;-4.21;100.00;100193.00;5020586;28;20057;-73
2024/02/21 02:52:37;;;;;;;16.77;9.83;;;;;;;-4.19;100.00;100199.84;5003409;28;20110;-72
2024/02/21 02:55:04;;;;;;;16.87;9.73;;;;;;;-4.15;100.00;100191.06;5021318;28;20139;-71
2024/02/21 02:57:30;;;;;;;18.60;10.80;;;;;;;-4.13;100.00;100183.22;5005347;28;20060;-70
2024/02/21 02:59:56;;;;;;;18.27;10.47;;;;;;;-4.08;100.00;100192.56;5020863;28;20048;-70
2024/02/21 03:02:22;;;;;;;15.23;9.77;;;;;;;-4.04;100.00;100188.94;5021611;28;20105;-72
2024/02/21 03:04:48;;;;;;;20.73;9.80;;;;;;;-4.00;100.00;100189.69;5004848;28;20059;-71
2024/02/21 03:07:15;;;;;;;15.10;9.20;;;;;;;-3.86;100.00;100195.22;5004019;28;20135;-72
2024/02/21 03:09:44;;;;;;;16.60;9.87;;;;;;;-3.89;100.00;100195.34;5003295;28;20073;-70
2024/02/21 03:12:11;;;;;;;16.93;9.63;;;;;;;-3.88;100.00;100199.63;5003715;28;20049;-71
2024/02/21 03:14:37;;;;;;;19.33;10.60;;;;;;;-3.92;100.00;100185.91;5003772;28;20045;-71
2024/02/21 03:17:04;;;;;;;17.50;9.83;;;;;;;-3.85;100.00;100190.00;5019649;28;20051;-70
2024/02/21 03:19:30;;;;;;;16.77;9.60;;;;;;;-3.90;100.00;100181.50;5003371;28;20049;-71
2024/02/21 03:21:56;;;;;;;17.80;10.33;;;;;;;-3.99;100.00;100191.38;5003415;28;20041;-75
2024/02/21 03:24:22;;;;;;;15.20;9.90;;;;;;;-4.02;100.00;100179.34;5019632;28;20143;-73
2024/02/21 03:26:49;;;;;;;17.27;10.10;;;;;;;-3.98;100.00;100175.75;5003160;28;20545;-72
2024/02/21 03:29:16;;;;;;;14.63;10.13;;;;;;;-3.91;100.00;100176.38;5019537;28;20063;-74
2024/02/21 03:31:43;;;;;;;16.13;9.93;;;;;;;-3.93;100.00;100173.84;5003118;28;20052;-73
2024/02/21 03:34:11;;;;;;;15.80;10.40;;;;;;;-3.93;100.00;100165.19;5003291;28;20554;-71
2024/02/21 03:36:38;;;;;;;15.93;9.83;;;;;;;-4.00;100.00;100161.16;5019706;28;20106;-73
2024/02/21 03:39:05;;;;;;;18.60;11.20;;;;;;;-3.99;100.00;100171.47;5003022;28;20052;-72
2024/02/21 03:41:31;;;;;;;19.47;10.73;;;;;;;-4.06;100.00;100175.16;5003074;28;20056;-71
2024/02/21 03:43:56;;;;;;;16.80;10.30;;;;;;;-4.00;100.00;100182.72;5025022;28;20601;-72
2024/02/21 03:46:24;;;;;;;16.63;10.13;;;;;;;-3.95;100.00;100170.44;4999198;28;20083;-73
2024/02/21 03:48:50;;;;;;;16.47;9.87;;;;;;;-4.00;100.00;100177.53;4998666;28;20450;-73
2024/02/21 03:51:16;;;;;;;18.43;10.50;;;;;;;-4.01;100.00;100183.63;5014379;28;20053;-74
2024/02/21 03:53:42;;;;;;;15.97;10.30;;;;;;;-3.95;100.00;100180.81;5014767;28;20045;-72
2024/02/21 03:56:08;;;;;;;16.53;9.97;;;;;;;-3.94;100.00;100172.16;4992597;28;20041;-72
2024/02/21 03:58:34;;;;;;;17.33;9.70;;;;;;;-3.88;100.00;100181.47;4993287;28;20041;-72
2024/02/21 04:01:04;;;;;;;18.07;9.97;;;;;;;-3.92;100.00;100178.13;5031928;28;20415;-72
2024/02/21 04:03:30;;;;;;;17.83;10.27;;;;;;;-3.88;100.00;100184.06;5011051;28;20502;-72
2024/02/21 04:05:56;;;;;;;22.50;10.20;;;;;;;-3.85;100.00;100177.00;5026878;28;20088;-73
2024/02/21 04:08:27;;;;;;;19.23;11.23;;;;;;;-3.83;100.00;100180.38;4994211;28;20068;-72
2024/02/21 04:10:52;;;;;;;18.67;10.73;;;;;;;-3.85;100.00;100176.16;4995278;28;20033;-75
2024/02/21 04:13:20;;;;;;;17.63;10.63;;;;;;;-3.85;100.00;100182.19;4996761;28;20124;-72
2024/02/21 04:15:46;;;;;;;15.00;10.00;;;;;;;-3.85;100.00;100182.19;4998822;28;20045;-76
2024/02/21 04:18:11;;;;;;;17.00;10.03;;;;;;;-3.79;100.00;100175.94;5000524;28;20044;-70
2024/02/21 04:20:37;;;;;;;17.50;10.53;;;;;;;-3.81;100.00;100168.19;5018707;28;20037;-71
2024/02/21 04:23:03;;;;;;;17.33;10.63;;;;;;;-3.80;100.00;100182.03;4994397;28;20049;-72
2024/02/21 04:25:29;;;;;;;22.20;10.83;;;;;;;-3.82;100.00;100174.31;4980858;28;20045;-71
2024/02/21 04:27:55;;;;;;;19.57;10.60;;;;;;;-3.88;100.00;100171.94;4981172;28;20411;-73
2024/02/21 04:30:21;;;;;;;19.13;11.00;;;;;;;-3.81;100.00;100183.78;4966230;28;20176;-77
2024/02/21 04:32:47;;;;;;;15.73;9.70;;;;;;;-3.75;100.00;100193.06;4982145;28;20041;-74
2024/02/21 04:35:13;;;;;;;20.30;10.70;;;;;;;-3.71;100.00;100187.75;4996174;28;20156;-75
2024/02/21 04:37:39;;;;;;;18.10;10.43;;;;;;;-3.68;100.00;100191.97;4981130;28;20124;-74
2024/02/21 04:40:07;;;;;;;17.70;10.00;;;;;;;-3.61;100.00;100190.81;4977966;28;20397;-75
2024/02/21 04:42:32;;;;;;;15.27;9.90;;;;;;;-3.65;100.00;100191.84;4978330;28;20140;-77
2024/02/21 04:44:59;;;;;;;18.53;10.30;;;;;;;-3.71;100.00;100186.88;4995829;28;20033;-77
2024/02/21 04:47:39;;;;;;;20.00;10.48;;;;;;;-3.59;100.00;100179.50;4981876;28;20077;-76
2024/02/21 04:50:06;;;;;;;16.60;10.30;;;;;;;-3.61;100.00;100181.28;5033145;28;20044;-75
2024/02/21 04:52:31;;;;;;;16.73;10.57;;;;;;;-3.68;100.00;100185.03;4999679;28;20506;-74
2024/02/21 04:54:58;;;;;;;20.10;11.67;;;;;;;-3.76;100.00;100184.47;5017116;28;20061;-74
2024/02/21 04:57:29;;;;;;;20.77;11.27;;;;;;;-3.62;100.00;100179.59;4991978;28;20080;-75
2024/02/21 04:59:58;;;;;;;18.80;10.73;;;;;;;-3.60;100.00;100175.19;4965663;28;20049;-75
2024/02/21 05:02:26;;;;;;;18.83;10.83;;;;;;;-3.59;100.00;100181.22;4979508;28;20062;-73
2024/02/21 05:04:52;;;;;;;17.60;10.43;;;;;;;-3.55;100.00;100180.19;4958300;28;20054;-73
2024/02/21 05:07:19;;;;;;;18.97;10.80;;;;;;;-3.53;100.00;100181.84;4974318;28;20073;-73
2024/02/21 05:09:46;;;;;;;17.87;10.13;;;;;;;-3.44;100.00;100179.81;4955747;28;20047;-74
2024/02/21 05:12:16;;;;;;;16.15;9.85;;;;;;;-3.43;100.00;100187.56;4955538;28;20050;-74
2024/02/21 05:14:42;;;;;;;17.93;9.80;;;;;;;-3.35;100.00;100182.06;4956436;28;20050;-74
2024/02/21 05:17:08;;;;;;;16.00;9.53;;;;;;;-3.30;100.00;100182.72;4956198;28;20067;-74
2024/02/21 05:19:34;;;;;;;18.33;10.10;;;;;;;-3.27;100.00;100180.00;4955710;28;20062;-73
2024/02/21 05:22:02;;;;;;;15.47;9.33;;;;;;;-3.22;100.00;100185.88;4970757;28;20085;-74
2024/02/21 05:24:29;;;;;;;15.50;10.20;;;;;;;-3.20;100.00;100176.28;4970998;28;20051;-74
2024/02/21 05:26:56;;;;;;;16.53;10.23;;;;;;;-3.22;100.00;100173.75;4922521;29;20586;-74
2024/02/21 05:29:22;;;;;;;18.00;10.80;;;;;;;-3.20;100.00;100186.66;4911371;29;20155;-75
2024/02/21 05:31:51;;;;;;;17.43;10.47;;;;;;;-3.16;100.00;100183.03;4882007;29;20064;-75
2024/02/21 05:34:20;;;;;;;18.50;11.43;;;;;;;-3.20;100.00;100182.34;4882630;29;20387;-74
2024/02/21 05:36:49;;;;;;;17.20;10.43;;;;;;;-3.15;100.00;100184.75;4915848;29;20066;-75
2024/02/21 05:39:19;;;;;;;17.17;10.87;;;;;;;-3.12;100.00;100189.81;4919766;29;20377;-74
2024/02/21 05:41:45;;;;;;;17.60;9.88;;;;;;;-3.07;100.00;100187.88;4974978;28;20472;-74
2024/02/21 05:44:12;;;;;;;16.40;10.13;;;;;;;-2.89;100.00;100177.59;4945842;28;20057;-74
2024/02/21 05:46:37;;;;;;;21.50;10.80;;;;;;;-3.03;100.00;100174.72;4993459;28;20088;-74
2024/02/21 05:49:03;;;;;;;18.73;11.10;;;;;;;-3.04;100.00;100188.59;4961240;28;20085;-73
2024/02/21 05:51:34;;;;;;;17.93;10.73;;;;;;;-2.87;100.00;100188.78;4977135;28;20057;-74
2024/02/21 05:54:01;;;;;;;22.23;10.83;;;;;;;-2.83;100.00;100179.94;4962053;28;20145;-74
2024/02/21 05:56:28;;;;;;;18.20;10.37;;;;;;;-2.88;100.00;100192.31;4962147;28;20472;-74
2024/02/21 05:59:00;;;;;;;16.73;10.83;;;;;;;-2.89;100.00;100187.16;4997452;28;20058;-74
2024/02/21 06:01:26;;;;;;;15.67;10.17;;;;;;;-2.82;100.00;100186.84;5014120;28;20507;-72
2024/02/21 06:03:52;;;;;;;16.77;10.20;;;;;;;-2.83;100.00;100176.53;4981277;28;20046;-71
2024/02/21 06:06:18;;;;;;;20.23;11.80;;;;;;;-2.80;100.00;100189.41;5013804;28;20048;-72
2024/02/21 06:08:44;;;;;;;19.93;10.57;;;;;;;-2.78;100.00;100187.59;4998218;28;20052;-71
2024/02/21 06:11:10;;;;;;;17.23;10.63;;;;;;;-2.74;100.00;100187.41;5017618;28;20049;-72
2024/02/21 06:13:39;;;;;;;18.80;10.87;;;;;;;-2.66;100.00;100185.31;4984880;28;20049;-66
2024/02/21 06:16:07;;;;;;;18.90;10.57;;;;;;;-2.67;100.00;100187.97;5032917;28;20131;-67
2024/02/21 06:18:45;;;;;;;19.63;11.37;;;;;;;-2.68;100.00;100186.28;5000204;28;20084;-70
2024/02/21 06:21:12;;;;;;;17.57;10.53;;;;;;;-2.78;100.00;100187.59;4985320;28;20150;-68
2024/02/21 06:23:38;;;;;;;17.83;10.43;;;;;;;-2.76;100.00;100180.56;5000234;28;20045;-68
2024/02/21 06:26:04;;;;;;;17.23;9.80;;;;;;;-2.54;100.00;100177.03;5016581;28;20081;-67
2024/02/21 06:28:30;;;;;;;17.90;11.10;;;;;;;-2.53;100.00;100196.91;5032447;28;20147;-69
2024/02/21 06:30:56;;;;;;;21.07;12.03;;;;;;;-2.45;100.00;100188.78;5013396;28;20044;-70
2024/02/21 06:33:24;;;;;;;15.33;10.03;;;;;;;-2.29;100.00;100195.06;5026915;28;20049;-68
2024/02/21 06:35:52;;;;;;;19.30;9.90;;;;;;;-2.30;100.00;100186.41;4990909;28;20506;-70
2024/02/21 06:38:19;;;;;;;16.13;9.57;;;;;;;-2.21;100.00;100187.75;5000843;28;20045;-73
2024/02/21 06:40:49;;;;;;;17.63;10.80;;;;;;;-2.16;100.00;100188.41;5002933;28;20041;-70
2024/02/21 06:43:19;;;;;;;17.15;9.95;;;;;;;-2.12;100.00;100183.00;4987012;28;20033;-70
2024/02/21 06:45:50;;;;;;;19.70;11.37;;;;;;;-2.19;100.00;100192.00;5035736;28;20045;-73
2024/02/21 06:48:18;;;;;;;18.37;10.53;;;;;;;-2.18;100.00;100196.28;5003669;28;20050;-72
2024/02/21 06:50:44;;;;;;;19.80;10.47;;;;;;;-2.13;100.00;100193.47;4985797;28;20576;-72
2024/02/21 06:53:10;;;;;;;19.77;10.10;;;;;;;-1.98;100.00;100201.47;4985759;28;20061;-72
2024/02/21 06:55:35;;;;;;;19.57;9.67;;;;;;;-1.92;100.00;100200.34;4985309;28;20448;-71
2024/02/21 06:58:01;;;;;;;22.33;10.70;;;;;;;-1.88;100.00;100189.75;4987034;28;20145;-71
2024/02/21 07:00:29;;;;;;;18.23;9.60;;;;;;;-1.71;100.00;100202.03;4955509;28;20039;-72
2024/02/21 07:02:58;;;;;;;16.87;9.97;;;;;;;-1.71;100.00;100209.84;4988054;28;20065;-72
2024/02/21 07:05:23;;;;;;;21.57;11.60;;;;;;;-1.76;100.00;100214.41;4970186;28;20049;-71
2024/02/21 07:07:50;;;;;;;16.23;9.63;;;;;;;-1.62;100.00;100198.16;4986519;28;20050;-71
2024/02/21 07:10:15;;;;;;;23.10;11.00;;;;;;;-1.80;100.00;100184.22;4970194;28;20064;-71
2024/02/21 07:12:43;;;;;;;19.80;10.50;;;;;;;-1.61;100.00;100189.47;4995063;28;20042;-71
2024/02/21 07:15:09;;;;;;;20.47;10.73;;;;;;;-1.70;100.00;100185.50;4970585;28;20050;-71
2024/02/21 07:17:35;;;;;;;13.87;9.30;;;;;;;-1.44;100.00;100181.69;4977952;28;20069;-71
2024/02/21 07:20:04;;;;;;;17.40;10.40;;;;;;;-1.41;100.00;100197.19;4995065;28;20488;-71
2024/02/21 07:22:30;;;;;;;18.70;10.67;;;;;;;-1.61;100.00;100184.25;5023937;28;20056;-70
2024/02/21 07:24:57;;;;;;;17.37;10.60;;;;;;;-1.45;100.00;100178.28;5018817;28;20056;-71
2024/02/21 07:27:27;;;;;;;18.07;11.37;;;;;;;-1.15;100.00;100183.84;5027600;28;20144;-71
2024/02/21 07:29:55;;;;;;;21.13;11.38;;;;;;;-0.69;100.00;100173.72;5021940;28;20044;-71
2024/02/21 07:32:21;;;;;;;17.33;10.17;;;;;;;-0.04;100.00;100178.25;5019487;28;20103;-72
2024/02/21 07:34:47;;;;;;;16.50;10.97;;;;;;;0.91;100.00;100180.94;5041657;28;20052;-65
2024/02/21 07:37:13;;;;;;;19.87;10.70;;;;;;;2.08;100.00;100181.09;5030280;28;20042;-72
2024/02/21 07:39:41;;;;;;;15.30;10.93;;;;;;;3.12;100.00;100188.53;5018181;28;20364;-74
2024/02/21 07:42:08;;;;;;;15.43;10.30;;;;;;;4.11;100.00;100173.13;5034978;28;20154;-73
2024/02/21 07:44:39;;;;;;;13.80;10.40;;;;;;;5.01;100.00;100172.78;5002071;28;20462;-71
2024/02/21 07:47:07;;;;;;;14.57;10.50;;;;;;;5.71;100.00;100168.47;5018334;28;20114;-72
2024/02/21 07:49:46;;;;;;;13.20;10.18;;;;;;;6.78;100.00;100171.53;5002670;28;20044;-72
2024/02/21 07:52:15;;;;;;;16.08;10.60;;;;;;;7.54;100.00;100160.91;5019330;28;20159;-76
2024/02/21 07:54:43;;;;;;;11.63;9.15;;;;;;;8.17;100.00;100175.84;5018246;28;20531;-73
2024/02/21 07:57:11;;;;;;;11.82;8.80;;;;;;;8.49;93.46;100166.03;5001904;28;20044;-74
2024/02/21 07:59:37;;;;;;;12.15;9.30;;;;;;;9.09;92.45;100155.38;4985682;28;20048;-73
2024/02/21 08:04:55;;;;;;;10.18;8.63;;;;;;;10.44;76.20;100176.47;5004940;28;20044;-72
2024/02/21 08:07:22;;;;;;;11.25;7.93;;;;;;;9.99;65.31;100164.81;5018658;28;20052;-74
2024/02/21 08:10:01;;;;;;;8.70;7.80;;;;;;;9.99;72.01;100160.31;5018815;28;20483;-72
2024/02/21 08:12:34;;;;;;;10.52;8.75;;;;;;;9.62;62.38;100175.28;4995903;28;20208;-72
2024/02/21 08:15:08;;;;;;;9.70;7.85;;;;;;;9.12;59.99;100156.94;4978339;28;20497;-71
2024/02/21 08:17:35;;;;;;;8.23;6.88;;;;;;;9.44;62.01;100179.56;4979172;28;20050;-73
2024/02/21 08:20:01;;;;;;;14.52;9.65;;;;;;;9.26;61.56;100165.31;4994696;28;20137;-71
2024/02/21 08:22:29;;;;;;;11.30;8.32;;;;;;;8.65;60.98;100157.59;4978305;28;20488;-73
2024/02/21 08:24:54;;;;;;;12.68;10.10;;;;;;;8.24;60.48;100153.25;4978779;28;20050;-77
2024/02/21 08:27:20;;;;;;;10.88;9.77;;;;;;;8.25;65.36;100150.47;4979456;28;20115;-72
2024/02/21 08:29:46;;;;;;;13.95;8.88;;;;;;;8.25;63.61;100150.47;4978184;28;20045;-72
2024/02/21 08:32:12;;;;;;;9.32;7.32;;;;;;;7.88;67.06;100167.72;4996408;28;20144;-72
2024/02/21 08:34:38;;;;;;;10.98;8.05;;;;;;;6.77;71.38;100154.03;5005208;28;20060;-72
2024/02/21 08:37:04;;;;;;;9.70;7.47;;;;;;;6.14;72.65;100161.66;4967805;28;20054;-71
2024/02/21 08:39:30;;;;;;;12.18;8.05;;;;;;;5.52;85.74;100143.63;4964360;28;20056;-71
2024/02/21 08:41:57;;;;;;;8.73;7.03;;;;;;;5.76;95.75;100147.03;4979311;28;20041;-71
2024/02/21 08:44:26;;;;;;;10.60;7.35;;;;;;;5.21;88.65;100142.41;4978785;28;20054;-70
2024/02/21 08:46:52;;;;;;;10.45;7.80;;;;;;;4.66;91.89;100142.88;4962683;28;20049;-71
2024/02/21 08:49:18;;;;;;;11.02;7.28;;;;;;;4.35;100.00;100132.81;4986087;28;20439;-71
2024/02/21 08:51:47;;;;;;;10.18;7.72;;;;;;;3.98;100.00;100146.84;5015234;28;20052;-71
2024/02/21 08:54:13;;;;;;;12.07;7.95;;;;;;;3.57;100.00;100130.38;4998193;28;20428;-70
2024/02/21 08:56:39;;;;;;;11.37;7.93;;;;;;;3.08;100.00;100132.75;5013565;28;20068;-71
2024/02/21 08:59:05;;;;;;;10.07;7.60;;;;;;;3.23;100.00;100131.75;4997210;28;20128;-72
2024/02/21 09:01:30;;;;;;;11.40;7.00;;;;;;;3.45;100.00;100125.94;4997583;28;20474;-71
2024/02/21 09:03:57;;;;;;;10.67;7.30;;;;;;;3.55;100.00;100131.44;4965118;28;20449;-70
2024/02/21 09:06:23;;;;;;;9.03;6.67;;;;;;;3.76;100.00;100133.47;4981394;28;20135;-70
2024/02/21 09:08:49;;;;;;;10.40;7.53;;;;;;;3.61;100.00;100112.63;4964866;28;20049;-70
2024/02/21 09:11:16;;;;;;;10.00;7.27;;;;;;;3.66;100.00;100128.94;4980991;28;20045;-71
2024/02/21 09:13:45;;;;;;;10.23;7.23;;;;;;;3.57;100.00;100137.44;4980976;28;20064;-70
2024/02/21 09:16:14;;;;;;;13.18;7.20;;;;;;;3.46;100.00;100125.84;4997888;28;20057;-71
2024/02/21 09:18:40;;;;;;;9.80;6.63;;;;;;;3.46;100.00;100127.63;5010532;28;20064;-70
2024/02/21 09:21:07;;;;;;;11.43;7.80;;;;;;;3.28;100.00;100118.34;4995368;28;20046;-71
2024/02/21 09:23:33;;;;;;;9.40;6.57;;;;;;;3.30;100.00;100113.84;4977917;28;20110;-70
2024/02/21 09:26:03;;;;;;;8.20;6.10;;;;;;;3.46;100.00;100111.88;4955835;28;20042;-71
2024/02/21 09:28:30;;;;;;;10.20;6.57;;;;;;;3.54;100.00;100119.25;4936416;29;20138;-71
2024/02/21 09:30:57;;;;;;;9.67;7.30;;;;;;;3.60;100.00;100110.97;4952089;28;20062;-70
2024/02/21 09:33:23;;;;;;;11.80;7.53;;;;;;;3.34;100.00;100117.94;4939060;28;20445;-69
2024/02/21 09:35:49;;;;;;;11.27;7.57;;;;;;;2.93;100.00;100120.66;4938827;28;20055;-70
2024/02/21 09:38:15;;;;;;;12.50;8.10;;;;;;;2.45;100.00;100122.88;4938658;28;20062;-69
2024/02/21 09:40:42;;;;;;;13.40;8.53;;;;;;;1.94;100.00;100105.97;4954734;28;20055;-69
2024/02/21 09:43:08;;;;;;;13.73;8.43;;;;;;;1.64;100.00;100118.28;4954822;28;20181;-69
2024/02/21 09:45:34;;;;;;;14.30;8.83;;;;;;;1.50;100.00;100110.38;4942367;28;20070;-69
2024/02/21 09:48:21;;;;;;;12.30;7.87;;;;;;;1.50;100.00;100113.00;4958825;28;20055;-69
2024/02/21 09:50:50;;;;;;;13.17;8.33;;;;;;;1.31;100.00;100107.13;4993469;28;20050;-74
2024/02/21 09:53:18;;;;;;;12.13;7.87;;;;;;;1.22;100.00;100107.66;4947086;28;20046;-69
2024/02/21 09:55:47;;;;;;;12.23;7.90;;;;;;;1.07;100.00;100105.94;4931951;28;20042;-70
2024/02/21 09:58:14;;;;;;;12.57;7.97;;;;;;;1.11;100.00;100105.69;4978154;28;20062;-71
2024/02/21 10:00:42;;;;;;;12.13;7.37;;;;;;;1.09;100.00;100109.31;4962070;28;20046;-70
2024/02/21 10:03:12;;;;;;;13.90;8.33;;;;;;;0.87;100.00;100108.84;4962950;28;20050;-72
2024/02/21 10:05:39;;;;;;;14.37;8.20;;;;;;;0.70;100.00;100098.47;4967538;28;20054;-70
2024/02/21 10:08:14;;;;;;;11.27;7.33;;;;;;;1.16;100.00;100092.34;5057166;28;20057;-72
2024/02/21 10:10:45;;;;;;;11.37;7.50;;;;;;;1.50;100.00;100094.69;5010832;28;20458;-70
2024/02/21 10:13:24;;;;;;;;;;;;;;;1.55;100.00;100106.56;5060829;28;20060;-70
2024/02/21 10:16:08;;;;;;;11.80;7.10;;;;;;;1.63;100.00;100101.72;5059597;28;19931;-71
2024/02/21 10:18:34;;;;;;;10.07;6.80;;;;;;;1.78;100.00;100115.69;5011229;28;20051;-71
2024/02/21 10:21:06;;;;;;;12.27;7.80;;;;;;;1.37;100.00;100105.03;5027095;28;20052;-70
2024/02/21 10:23:47;;;;;;;15.43;8.47;;;;;;;1.31;100.00;100100.16;5042781;28;20151;-71
2024/02/21 10:26:15;;;;;;;10.70;6.53;;;;;;;1.51;100.00;100097.22;5043062;28;20158;-71
2024/02/21 10:28:47;;;;;;;8.70;6.30;;;;;;;1.77;100.00;100101.75;5042367;28;20078;-71
2024/02/21 10:31:35;;;;;;;10.57;6.27;;;;;;;1.81;100.00;100098.94;5061430;28;20059;-72
2024/02/21 10:34:05;;;;;;;;;;;;;;;1.59;100.00;100105.47;5043484;28;20148;-71
2024/02/21 10:36:31;;;;;;;10.83;5.93;;;;;;;1.42;100.00;100086.44;5036375;28;19976;-72
2024/02/21 10:38:58;;;;;;;8.20;6.27;;;;;;;1.58;100.00;100093.28;4994781;28;20045;-70
2024/02/21 10:41:24;;;;;;;8.20;6.00;;;;;;;1.80;100.00;100092.03;5000167;28;20095;-71
2024/02/21 10:43:54;;;;;;;9.00;5.63;;;;;;;1.83;100.00;100091.84;4999809;28;20435;-71
2024/02/21 10:46:22;;;;;;;9.47;6.13;;;;;;;1.86;100.00;100095.09;5016154;28;20053;-72
2024/02/21 10:49:07;;;;;;;8.27;5.53;;;;;;;2.08;100.00;100090.25;4960519;28;20055;-72
2024/02/21 10:51:37;;;;;;;10.40;6.50;;;;;;;2.17;100.00;100100.16;4957131;28;20046;-76
2024/02/21 10:54:13;;;;;;;8.38;6.28;;;;;;;2.23;100.00;100102.41;4992385;28;20100;-76
2024/02/21 10:56:41;;;;;;;12.97;7.60;;;;;;;1.90;100.00;100103.63;4975069;28;20068;-72
2024/02/21 10:59:08;;;;;;;10.80;6.73;;;;;;;1.69;100.00;100090.06;4995697;28;20050;-71
2024/02/21 11:01:36;;;;;;;9.80;6.73;;;;;;;1.27;100.00;100093.41;4960215;28;20065;-78
2024/02/21 11:04:07;;;;;;;10.67;7.37;;;;;;;0.98;100.00;100093.41;4970032;28;20054;-73
2024/02/21 11:06:37;;;;;;;11.77;7.17;;;;;;;0.80;100.00;100091.81;4962751;28;20054;-72
2024/02/21 11:09:09;;;;;;;9.40;6.77;;;;;;;0.74;100.00;100082.53;4994014;28;20179;-78
2024/02/21 11:11:47;;;;;;;13.87;7.90;;;;;;;0.28;100.00;100075.53;4973882;28;20161;-78
2024/02/21 11:14:21;;;;;;;11.70;7.00;;;;;;;0.38;100.00;100075.91;4926384;28;20153;-71